Terminal Aerodrome Forecast
Issued by NWS

Home | Current Version | Previous Version | Text Only | Print | Product List | Glossary On
Versions: 1 2 3 4 5 6 7 8 9 10 11 12 13 14
000
FTUS46 KPDT 261700
TAFYKM
TAF
KYKM 261720Z 2618/2718 12004KT P6SM SKC
     FM270300 29004KT P6SM SCT080 BKN120
     FM270900 VRB04KT 5SM BR SCT020 OVC080
     FM271500 VRB04KT 4SM BR BKN040=

USA.gov is the U.S. government's official web portal to all federal, state and local government web resources and services.